createdAt,value
2017-11-28T00:00:48.405Z,99995.62
2017-11-28T00:03:17.521Z,99998.43
2017-11-28T00:05:45.840Z,99997.88
2017-11-28T00:08:14.159Z,99999.05
2017-11-28T00:10:42.757Z,99991.79
2017-11-28T00:13:11.582Z,99982.95
2017-11-28T00:15:39.930Z,99995.28
2017-11-28T00:18:08.501Z,99982.47
2017-11-28T00:20:36.817Z,99986.28
2017-11-28T00:23:05.140Z,99985.22
2017-11-28T00:25:33.490Z,99985.70
2017-11-28T00:28:01.802Z,99986.52
2017-11-28T00:30:30.098Z,99979.55
2017-11-28T00:32:58.452Z,99982.58
2017-11-28T00:35:26.800Z,99992.28
2017-11-28T00:37:55.126Z,99992.20
2017-11-28T00:40:23.826Z,99982.20
2017-11-28T00:42:52.139Z,99989.11
2017-11-28T00:45:20.459Z,99989.76
2017-11-28T00:47:48.774Z,99993.41
2017-11-28T00:50:17.889Z,99983.98
2017-11-28T00:52:46.212Z,99984.67
2017-11-28T00:55:14.557Z,99993.94
2017-11-28T00:57:42.883Z,99980.98
2017-11-28T01:00:11.187Z,99983.31
2017-11-28T01:02:40.789Z,99983.08
2017-11-28T01:05:09.907Z,99994.78
2017-11-28T01:07:38.296Z,99989.53
2017-11-28T01:10:06.623Z,99986.91
2017-11-28T01:12:35.048Z,99986.30
2017-11-28T01:15:03.397Z,99991.67
2017-11-28T01:17:31.771Z,99982.55
2017-11-28T01:20:00.085Z,99981.90
2017-11-28T01:22:28.409Z,99975.36
2017-11-28T01:24:57.115Z,99971.70
2017-11-28T01:27:25.465Z,99972.31
2017-11-28T01:29:53.777Z,99979.16
2017-11-28T01:32:22.910Z,99991.50
2017-11-28T01:34:51.230Z,99965.56
2017-11-28T01:37:19.558Z,99969.90
2017-11-28T01:39:47.902Z,99963.80
2017-11-28T01:42:16.207Z,99961.96
2017-11-28T01:44:44.535Z,99957.05
2017-11-28T01:47:12.951Z,99955.02
2017-11-28T01:49:41.276Z,99959.12
2017-11-28T01:52:09.577Z,99958.41
2017-11-28T01:54:37.938Z,99965.71
2017-11-28T01:57:06.267Z,99960.63
2017-11-28T01:59:34.590Z,99965.78
2017-11-28T02:02:02.916Z,99969.84
2017-11-28T02:04:32.093Z,99966.34
2017-11-28T02:07:00.421Z,99973.81
2017-11-28T02:09:28.832Z,99968.93
2017-11-28T02:11:57.177Z,99966.52
2017-11-28T02:14:26.278Z,99965.82
2017-11-28T02:16:54.617Z,99977.87
2017-11-28T02:19:23.009Z,99966.98
2017-11-28T02:21:52.128Z,99957.72
2017-11-28T02:24:21.214Z,99957.59
2017-11-28T02:26:50.284Z,99956.45
2017-11-28T02:29:18.627Z,99962.22
2017-11-28T02:31:57.743Z,99953.90
2017-11-28T02:34:26.055Z,99965.86
2017-11-28T02:36:54.413Z,99951.02
2017-11-28T02:39:22.786Z,99958.06
2017-11-28T02:41:51.078Z,99957.42
2017-11-28T02:44:20.295Z,99945.35
2017-11-28T02:46:48.643Z,99952.81
2017-11-28T02:52:23.554Z,99941.52
2017-11-28T02:55:11.170Z,99933.17
2017-11-28T02:57:41.065Z,99934.88
2017-11-28T03:00:10.190Z,99928.06
2017-11-28T03:02:39.296Z,99927.80
2017-11-28T03:05:08.399Z,99937.17
2017-11-28T03:07:39.634Z,99938.09
2017-11-28T03:10:17.437Z,99948.49
2017-11-28T03:12:51.959Z,99944.85
2017-11-28T03:18:23.362Z,99935.06
2017-11-28T03:20:58.461Z,99935.23
2017-11-28T03:26:45.466Z,99933.01
2017-11-28T03:29:17.503Z,99928.89
2017-11-28T03:31:45.826Z,99923.63
2017-11-28T03:34:17.973Z,99918.56
2017-11-28T03:36:46.363Z,99931.36
2017-11-28T03:39:14.772Z,99926.24
2017-11-28T03:41:43.191Z,99921.20
2017-11-28T03:47:24.722Z,99899.34
2017-11-28T03:49:53.784Z,99905.23
2017-11-28T03:52:22.082Z,99908.70
2017-11-28T03:54:50.434Z,99895.42
2017-11-28T03:57:18.751Z,99892.52
2017-11-28T03:59:47.095Z,99887.48
2017-11-28T04:02:15.479Z,99877.36
2017-11-28T04:04:43.889Z,99873.28
2017-11-28T04:07:12.255Z,99874.97
2017-11-28T04:09:40.715Z,99870.64
2017-11-28T04:12:09.043Z,99861.73
2017-11-28T04:14:39.033Z,99862.21
2017-11-28T04:17:07.687Z,99859.62
2017-11-28T04:19:35.987Z,99858.67
2017-11-28T04:22:05.189Z,99860.09
2017-11-28T04:24:33.548Z,99855.52
2017-11-28T04:27:01.833Z,99866.73
2017-11-28T04:29:30.185Z,99864.27
2017-11-28T04:31:58.872Z,99850.34
2017-11-28T04:34:29.845Z,99852.75
2017-11-28T04:36:58.155Z,99849.45
2017-11-28T04:39:26.532Z,99849.50
2017-11-28T04:41:54.925Z,99839.59
2017-11-28T04:44:23.285Z,99838.20
2017-11-28T04:46:51.662Z,99848.77
2017-11-28T04:49:20.002Z,99844.70
2017-11-28T04:51:49.226Z,99844.80
2017-11-28T04:54:17.675Z,99845.90
2017-11-28T04:56:46.811Z,99845.58
2017-11-28T04:59:15.887Z,99854.22
2017-11-28T05:01:44.223Z,99860.78
2017-11-28T05:04:13.281Z,99854.04
2017-11-28T05:06:41.594Z,99837.03
2017-11-28T05:09:10.728Z,99846.48
2017-11-28T05:11:39.137Z,99854.13
2017-11-28T05:14:07.448Z,99857.54
2017-11-28T05:16:36.691Z,99844.22
2017-11-28T05:19:05.069Z,99841.37
2017-11-28T05:21:33.411Z,99848.23
2017-11-28T05:24:01.781Z,99838.21
2017-11-28T05:26:30.875Z,99846.77
2017-11-28T05:28:59.949Z,99851.98
2017-11-28T05:31:28.329Z,99849.16
2017-11-28T05:33:56.659Z,99847.61
2017-11-28T05:36:24.970Z,99850.98
2017-11-28T05:38:53.607Z,99849.23
2017-11-28T05:41:21.972Z,99837.50
2017-11-28T05:43:51.112Z,99833.20
2017-11-28T05:46:20.309Z,99835.21
2017-11-28T05:48:48.616Z,99861.36
2017-11-28T05:51:16.969Z,99828.36
2017-11-28T05:53:45.343Z,99842.60
2017-11-28T05:56:14.614Z,99836.06
2017-11-28T06:01:13.692Z,99839.98
2017-11-28T06:03:42.036Z,99839.10
2017-11-28T06:06:10.408Z,99833.86
2017-11-28T06:08:39.307Z,99829.89
2017-11-28T06:11:08.433Z,99838.38
2017-11-28T06:13:36.725Z,99831.44
2017-11-28T06:16:05.106Z,99823.80
2017-11-28T06:18:33.470Z,99826.80
2017-11-28T06:21:02.375Z,99835.21
2017-11-28T06:23:30.841Z,99822.84
2017-11-28T06:25:59.198Z,99829.16
2017-11-28T06:28:27.544Z,99815.28
2017-11-28T06:30:55.928Z,99819.92
2017-11-28T06:33:24.265Z,99813.23
2017-11-28T06:35:52.642Z,99819.98
2017-11-28T06:38:20.999Z,99818.18
2017-11-28T06:40:49.363Z,99818.28
2017-11-28T06:43:17.674Z,99816.56
2017-11-28T06:45:46.877Z,99820.11
2017-11-28T06:48:15.220Z,99816.02
2017-11-28T06:50:43.549Z,99816.19
2017-11-28T06:53:12.110Z,99817.07
2017-11-28T06:55:41.526Z,99825.10
2017-11-28T06:58:09.933Z,99816.16
2017-11-28T07:00:38.270Z,99809.52
2017-11-28T07:03:06.564Z,99805.02
2017-11-28T07:05:34.881Z,99819.69
2017-11-28T07:08:03.288Z,99812.66
2017-11-28T07:10:32.360Z,99818.13
2017-11-28T07:13:02.929Z,99815.59
2017-11-28T07:15:31.259Z,99814.17
2017-11-28T07:17:59.602Z,99816.11
2017-11-28T07:20:28.026Z,99824.02
2017-11-28T07:22:56.401Z,99821.55
2017-11-28T07:25:24.737Z,99828.09
2017-11-28T07:27:54.280Z,99826.36
2017-11-28T07:30:23.866Z,99834.22
2017-11-28T07:32:52.925Z,99829.70
2017-11-28T07:35:21.259Z,99833.63
2017-11-28T07:37:49.637Z,99839.95
2017-11-28T07:40:17.969Z,99830.35
2017-11-28T07:42:46.349Z,99839.20
2017-11-28T07:45:14.694Z,99832.17
2017-11-28T07:47:43.030Z,99835.95
2017-11-28T07:50:11.456Z,99831.06
2017-11-28T07:52:40.862Z,99831.90
2017-11-28T07:55:09.228Z,99831.49
2017-11-28T07:57:38.114Z,99822.45
2017-11-28T08:00:06.495Z,99835.67
2017-11-28T08:02:34.863Z,99838.22
2017-11-28T08:05:04.003Z,99839.47
2017-11-28T08:07:32.345Z,99850.75
2017-11-28T08:10:01.483Z,99847.09
2017-11-28T08:12:29.835Z,99842.38
2017-11-28T08:14:58.230Z,99845.18
2017-11-28T08:17:26.587Z,99851.61
2017-11-28T08:19:55.158Z,99848.97
2017-11-28T08:22:24.488Z,99853.54
2017-11-28T08:24:52.807Z,99850.19
2017-11-28T08:27:21.118Z,99855.00
2017-11-28T08:29:49.527Z,99857.92
2017-11-28T08:32:17.901Z,99850.94
2017-11-28T08:34:46.230Z,99854.73
2017-11-28T08:37:14.931Z,99865.17
2017-11-28T08:39:44.038Z,99868.62
2017-11-28T08:42:12.386Z,99865.06
2017-11-28T08:44:41.648Z,99871.14
2017-11-28T08:47:09.973Z,99872.41
2017-11-28T08:49:39.202Z,99869.47
2017-11-28T08:52:07.553Z,99871.50
2017-11-28T08:54:35.888Z,99880.97
2017-11-28T08:57:04.295Z,99872.55
2017-11-28T08:59:32.941Z,99878.91
2017-11-28T09:02:01.262Z,99874.44
2017-11-28T09:04:29.603Z,99856.92
2017-11-28T09:06:57.988Z,99872.16
2017-11-28T09:09:27.355Z,99861.41
2017-11-28T09:11:56.469Z,99868.44
2017-11-28T09:14:24.843Z,99864.22
2017-11-28T09:16:53.189Z,99868.16
2017-11-28T09:19:21.513Z,99871.94
2017-11-28T09:21:50.155Z,99872.76
2017-11-28T09:24:19.274Z,99869.06
2017-11-28T09:26:47.634Z,99880.28
2017-11-28T09:29:16.007Z,99875.56
2017-11-28T09:31:45.375Z,99874.92
2017-11-28T09:34:14.587Z,99879.55
2017-11-28T09:36:42.921Z,99868.25
2017-11-28T09:39:11.249Z,99868.34
2017-11-28T09:41:39.595Z,99865.98
2017-11-28T09:44:07.990Z,99873.91
2017-11-28T09:46:36.342Z,99879.36
2017-11-28T09:49:04.709Z,99867.99
2017-11-28T09:51:33.045Z,99871.69
2017-11-28T09:54:01.410Z,99859.64
2017-11-28T09:56:29.737Z,99840.94
2017-11-28T09:58:58.067Z,99859.39
2017-11-28T10:01:26.397Z,99863.02
2017-11-28T10:03:54.723Z,99864.22
2017-11-28T10:06:23.250Z,99855.02
2017-11-28T10:08:52.340Z,99860.66
2017-11-28T10:11:21.426Z,99869.78
2017-11-28T10:13:50.546Z,99861.17
2017-11-28T10:16:18.864Z,99856.30
2017-11-28T10:18:47.210Z,99855.95
2017-11-28T10:21:15.560Z,99857.19
2017-11-28T10:23:44.658Z,99856.98
2017-11-28T10:26:13.760Z,99842.95
2017-11-28T10:28:43.144Z,99849.61
2017-11-28T10:31:11.469Z,99852.41
2017-11-28T10:33:39.766Z,99850.73
2017-11-28T10:36:08.107Z,99854.09
2017-11-28T10:38:36.468Z,99849.05
2017-11-28T10:41:05.631Z,99853.20
2017-11-28T10:43:33.993Z,99856.84
2017-11-28T10:46:02.320Z,99850.23
2017-11-28T10:48:30.673Z,99854.78
2017-11-28T10:50:59.077Z,99852.99
2017-11-28T10:53:27.398Z,99841.80
2017-11-28T10:55:55.698Z,99845.22
2017-11-28T10:58:24.038Z,99838.53
2017-11-28T11:00:53.093Z,99847.16
2017-11-28T11:03:21.548Z,99839.59
2017-11-28T11:05:50.687Z,99840.73
2017-11-28T11:08:19.030Z,99837.61
2017-11-28T11:10:47.330Z,99845.06
2017-11-28T11:13:15.741Z,99831.19
2017-11-28T11:15:44.830Z,99834.19
2017-11-28T11:18:13.903Z,99849.70
2017-11-28T11:20:42.245Z,99845.60
2017-11-28T11:23:10.555Z,99838.48
2017-11-28T11:25:38.853Z,99845.83
2017-11-28T11:28:07.194Z,99840.37
2017-11-28T11:30:35.510Z,99842.45
2017-11-28T11:33:04.599Z,99847.26
2017-11-28T11:35:33.113Z,99837.86
2017-11-28T11:38:01.442Z,99842.12
2017-11-28T11:40:29.777Z,99832.17
2017-11-28T11:42:58.110Z,99828.48
2017-11-28T11:45:26.444Z,99841.45
2017-11-28T11:47:54.796Z,99840.80
2017-11-28T11:50:23.135Z,99840.16
2017-11-28T11:52:51.455Z,99847.31
2017-11-28T11:55:19.797Z,99839.94
2017-11-28T11:57:48.343Z,99843.92
2017-11-28T12:00:16.643Z,99835.07
2017-11-28T12:02:44.969Z,99838.92
2017-11-28T12:05:13.365Z,99851.48
2017-11-28T12:07:41.690Z,99850.55
2017-11-28T12:10:10.022Z,99855.13
2017-11-28T12:12:40.086Z,99848.05
2017-11-28T12:15:10.253Z,99848.48
2017-11-28T12:17:43.129Z,99851.91
2017-11-28T12:20:11.956Z,99853.22
2017-11-28T12:22:43.711Z,99848.91
2017-11-28T12:25:14.573Z,99847.42
2017-11-28T12:27:42.924Z,99856.42
2017-11-28T12:30:11.357Z,99856.13
2017-11-28T12:32:39.647Z,99857.49
2017-11-28T12:35:09.424Z,99857.34
2017-11-28T12:37:38.277Z,99865.53
2017-11-28T12:40:06.614Z,99867.34
2017-11-28T12:42:34.923Z,99861.14
2017-11-28T12:45:03.266Z,99861.75
2017-11-28T12:47:31.613Z,99860.56
2017-11-28T12:49:59.913Z,99864.94
2017-11-28T12:52:28.328Z,99865.93
2017-11-28T12:54:56.669Z,99865.69
2017-11-28T12:57:25.159Z,99870.98
2017-11-28T12:59:53.667Z,99875.75
2017-11-28T13:02:22.067Z,99857.64
2017-11-28T13:04:50.390Z,99864.42
2017-11-28T13:07:18.752Z,99865.39
2017-11-28T13:09:47.262Z,99872.28
2017-11-28T13:12:15.626Z,99865.13
2017-11-28T13:14:45.024Z,99865.42
2017-11-28T13:17:13.545Z,99877.21
2017-11-28T13:19:41.949Z,99861.05
2017-11-28T13:22:10.470Z,99867.39
2017-11-28T13:24:38.778Z,99862.44
2017-11-28T13:27:07.851Z,99868.41
2017-11-28T13:29:37.484Z,99866.56
2017-11-28T13:32:05.803Z,99873.95
2017-11-28T13:34:34.137Z,99873.97
2017-11-28T13:37:03.249Z,99871.31
2017-11-28T13:39:31.591Z,99870.09
2017-11-28T13:41:59.948Z,99873.86
2017-11-28T13:44:29.260Z,99877.20
2017-11-28T13:46:57.602Z,99873.63
2017-11-28T13:49:25.925Z,99884.64
2017-11-28T13:51:54.292Z,99871.02
2017-11-28T13:54:22.617Z,99876.07
2017-11-28T13:56:50.945Z,99882.77
2017-11-28T13:59:19.286Z,99881.34
2017-11-28T14:01:47.625Z,99881.60
2017-11-28T14:04:15.956Z,99884.92
2017-11-28T14:06:44.563Z,99889.17
2017-11-28T14:09:12.863Z,99887.58
2017-11-28T14:11:41.156Z,99884.02
2017-11-28T14:14:10.271Z,99896.44
2017-11-28T14:16:39.665Z,99899.34
2017-11-28T14:19:08.020Z,99895.68
2017-11-28T14:21:46.659Z,99890.08
2017-11-28T14:27:21.365Z,99893.95
2017-11-28T14:29:53.116Z,99904.11
2017-11-28T14:32:39.911Z,99904.99
2017-11-28T14:35:18.188Z,99912.53
2017-11-28T14:37:47.846Z,99903.02
2017-11-28T14:40:17.905Z,99911.20
2017-11-28T14:42:47.177Z,99913.38
2017-11-28T14:45:15.565Z,99913.22
2017-11-28T14:47:44.722Z,99910.81
2017-11-28T14:50:13.094Z,99915.60
2017-11-28T14:52:45.353Z,99913.36
2017-11-28T14:55:20.087Z,99914.83
2017-11-28T14:57:48.912Z,99912.70
2017-11-28T15:00:22.573Z,99919.20
2017-11-28T15:05:58.922Z,99918.50
2017-11-28T15:08:40.702Z,99920.52
2017-11-28T15:14:17.562Z,99927.41
2017-11-28T15:16:51.407Z,99937.59
2017-11-28T15:22:23.401Z,99934.14
2017-11-28T15:24:57.409Z,99941.06
2017-11-28T15:27:27.357Z,99941.73
2017-11-28T15:29:56.496Z,99940.14
2017-11-28T15:32:25.248Z,99937.34
2017-11-28T15:34:53.720Z,99937.06
2017-11-28T15:37:22.084Z,99940.45
2017-11-28T15:39:50.440Z,99940.55
2017-11-28T15:42:18.755Z,99933.39
2017-11-28T15:44:47.069Z,99940.86
2017-11-28T15:47:15.463Z,99936.03
2017-11-28T15:49:43.833Z,99939.30
2017-11-28T15:52:12.170Z,99941.91
2017-11-28T15:54:40.791Z,99949.58
2017-11-28T15:57:09.127Z,99948.48
2017-11-28T15:59:37.432Z,99941.56
2017-11-28T16:02:05.854Z,99945.45
2017-11-28T16:04:34.946Z,99947.97
2017-11-28T16:07:03.310Z,99946.78
2017-11-28T16:09:31.662Z,99955.13
2017-11-28T16:12:00.004Z,99953.05
2017-11-28T16:14:29.106Z,99952.53
2017-11-28T16:16:57.775Z,99962.87
2017-11-28T16:19:26.098Z,99955.37
2017-11-28T16:21:55.222Z,99965.42
2017-11-28T16:24:23.582Z,99958.42
2017-11-28T16:26:51.934Z,99961.30
2017-11-28T16:29:21.050Z,99953.80
2017-11-28T16:31:50.185Z,99955.34
2017-11-28T16:34:18.532Z,99958.94
2017-11-28T16:36:46.858Z,99952.02
2017-11-28T16:39:15.286Z,99962.16
2017-11-28T16:41:43.629Z,99953.96
2017-11-28T16:44:11.939Z,99961.70
2017-11-28T16:46:41.067Z,99965.30
2017-11-28T16:49:09.424Z,99971.84
2017-11-28T16:51:37.759Z,99964.56
2017-11-28T16:54:06.105Z,99969.97
2017-11-28T16:56:34.452Z,99969.05
2017-11-28T16:59:03.606Z,99967.45
2017-11-28T17:01:32.191Z,99977.31
2017-11-28T17:04:00.574Z,99961.70
2017-11-28T17:06:28.918Z,99963.39
2017-11-28T17:08:57.580Z,99970.41
2017-11-28T17:11:25.982Z,99965.66
2017-11-28T17:13:54.435Z,99969.77
2017-11-28T17:16:23.205Z,99968.95
2017-11-28T17:18:51.702Z,99962.80
2017-11-28T17:21:20.916Z,99965.67
2017-11-28T17:23:49.520Z,99966.87
2017-11-28T17:26:18.068Z,99966.33
2017-11-28T17:28:46.645Z,99968.63
2017-11-28T17:31:16.629Z,99976.80
2017-11-28T17:33:45.246Z,99954.97
2017-11-28T17:36:13.672Z,99962.97
2017-11-28T17:38:42.129Z,99958.59
2017-11-28T17:41:10.455Z,99963.41
2017-11-28T17:43:38.780Z,99957.99
2017-11-28T17:46:08.045Z,99952.94
2017-11-28T17:48:36.347Z,99949.34
2017-11-28T17:51:04.718Z,99967.83
2017-11-28T17:53:33.088Z,99952.52
2017-11-28T17:56:01.415Z,99962.06
2017-11-28T17:58:29.758Z,99947.63
2017-11-28T18:00:58.107Z,99957.63
2017-11-28T18:03:27.261Z,99957.80
2017-11-28T18:05:55.957Z,99954.88
2017-11-28T18:08:24.347Z,99962.22
2017-11-28T18:10:52.654Z,99965.41
2017-11-28T18:13:21.082Z,99956.98
2017-11-28T18:15:49.412Z,99966.03
2017-11-28T18:18:18.496Z,99967.21
2017-11-28T18:20:47.635Z,99973.49
2017-11-28T18:23:16.782Z,99972.91
2017-11-28T18:25:45.128Z,99962.58
2017-11-28T18:28:13.494Z,99971.73
2017-11-28T18:30:42.902Z,99975.09
2017-11-28T18:33:11.315Z,99972.31
2017-11-28T18:35:39.656Z,99981.06
2017-11-28T18:38:08.031Z,99979.64
2017-11-28T18:40:37.162Z,99981.78
2017-11-28T18:43:05.524Z,99982.95
2017-11-28T18:45:34.385Z,99981.61
2017-11-28T18:48:03.664Z,99985.91
2017-11-28T18:50:32.032Z,99992.64
2017-11-28T18:53:00.453Z,99990.17
2017-11-28T18:55:28.814Z,100003.30
2017-11-28T18:57:57.187Z,99986.98
2017-11-28T19:00:27.122Z,99996.11
2017-11-28T19:02:55.472Z,99993.80
2017-11-28T19:05:23.900Z,99990.02
2017-11-28T19:07:52.239Z,99994.16
2017-11-28T19:10:20.832Z,99987.48
2017-11-28T19:12:49.212Z,99998.12
2017-11-28T19:15:18.384Z,100003.73
2017-11-28T19:17:46.761Z,99993.37
2017-11-28T19:20:15.355Z,99992.63
2017-11-28T19:22:43.822Z,99997.66
2017-11-28T19:25:12.189Z,99995.92
2017-11-28T19:27:40.655Z,99994.30
2017-11-28T19:30:09.241Z,99997.90
2017-11-28T19:32:37.650Z,99991.63
2017-11-28T19:35:05.997Z,99999.45
2017-11-28T19:37:34.778Z,99994.50
2017-11-28T19:40:03.125Z,100000.05
2017-11-28T19:42:31.484Z,100007.94
2017-11-28T19:44:59.858Z,99999.60
2017-11-28T19:47:28.211Z,100007.00
2017-11-28T19:49:56.585Z,99996.41
2017-11-28T19:52:24.956Z,100000.13
2017-11-28T19:54:53.290Z,100004.94
2017-11-28T19:57:21.632Z,100002.91
2017-11-28T19:59:50.341Z,100008.03
2017-11-28T20:02:19.437Z,100004.86
2017-11-28T20:04:47.767Z,100009.03
2017-11-28T20:07:16.944Z,100012.12
2017-11-28T20:09:45.269Z,100021.10
2017-11-28T20:12:13.681Z,100013.18
2017-11-28T20:14:42.056Z,100012.84
2017-11-28T20:17:10.827Z,100012.33
2017-11-28T20:19:39.164Z,100022.88
2017-11-28T20:22:07.991Z,100017.42
2017-11-28T20:24:36.334Z,100015.11
2017-11-28T20:27:04.722Z,100012.73
2017-11-28T20:29:33.857Z,100018.36
2017-11-28T20:32:02.250Z,100016.97
2017-11-28T20:34:30.582Z,100023.56
2017-11-28T20:36:59.724Z,100015.47
2017-11-28T20:39:28.062Z,100022.64
2017-11-28T20:41:56.564Z,100018.52
2017-11-28T20:44:25.018Z,100017.54
2017-11-28T20:46:53.388Z,100015.21
2017-11-28T20:49:28.139Z,100010.11
2017-11-28T20:51:56.548Z,100009.12
2017-11-28T20:54:24.853Z,100017.94
2017-11-28T20:56:53.235Z,100017.97
2017-11-28T20:59:21.594Z,100006.31
2017-11-28T21:01:49.913Z,100018.23
2017-11-28T21:04:19.257Z,100015.43
2017-11-28T21:06:47.607Z,100021.58
2017-11-28T21:09:16.891Z,100022.56
2017-11-28T21:11:46.043Z,100028.88
2017-11-28T21:14:14.624Z,100014.84
2017-11-28T21:16:42.958Z,100022.94
2017-11-28T21:19:12.124Z,100019.27
2017-11-28T21:21:40.545Z,100023.11
2017-11-28T21:24:09.246Z,100023.16
2017-11-28T21:26:37.872Z,100031.98
2017-11-28T21:29:06.249Z,100020.11
2017-11-28T21:31:34.626Z,100022.54
2017-11-28T21:34:03.030Z,100022.72
2017-11-28T21:36:31.383Z,100023.20
2017-11-28T21:38:59.807Z,100025.72
2017-11-28T21:41:28.205Z,100022.09
2017-11-28T21:43:56.541Z,100023.95
2017-11-28T21:46:24.883Z,100023.30
2017-11-28T21:48:53.364Z,100024.27
2017-11-28T21:51:21.739Z,100028.23
2017-11-28T21:53:50.077Z,100026.67
2017-11-28T21:56:18.415Z,100030.13
2017-11-28T21:58:47.506Z,100024.38
2017-11-28T22:01:15.886Z,100031.55
2017-11-28T22:03:44.267Z,100031.41
2017-11-28T22:06:12.628Z,100035.79
2017-11-28T22:08:42.454Z,100041.61
2017-11-28T22:11:10.973Z,100039.88
2017-11-28T22:13:40.072Z,100042.02
2017-11-28T22:16:09.158Z,100044.66
2017-11-28T22:18:37.545Z,100045.17
2017-11-28T22:21:05.911Z,100051.14
2017-11-28T22:23:34.259Z,100042.31
2017-11-28T22:26:02.614Z,100045.92
2017-11-28T22:28:31.623Z,100047.00
2017-11-28T22:30:59.995Z,100045.78
2017-11-28T22:33:28.501Z,100036.20
2017-11-28T22:35:56.834Z,100049.35
2017-11-28T22:38:25.905Z,100051.59
2017-11-28T22:40:55.053Z,100046.66
2017-11-28T22:43:24.442Z,100051.74
2017-11-28T22:45:52.796Z,100047.73
2017-11-28T22:48:21.954Z,100045.84
2017-11-28T22:50:50.644Z,100048.62
2017-11-28T22:53:18.956Z,100046.50
2017-11-28T22:55:48.310Z,100047.68
2017-11-28T22:58:16.658Z,100057.55
2017-11-28T23:00:44.997Z,100048.02
2017-11-28T23:03:13.380Z,100049.27
2017-11-28T23:05:41.701Z,100048.99
2017-11-28T23:08:10.032Z,100050.52
2017-11-28T23:10:39.176Z,100056.67
2017-11-28T23:13:07.506Z,100044.77
2017-11-28T23:15:35.849Z,100044.08
2017-11-28T23:18:04.312Z,100050.37
2017-11-28T23:20:33.565Z,100041.03
2017-11-28T23:23:01.900Z,100045.83
2017-11-28T23:25:30.289Z,100048.23
2017-11-28T23:27:58.924Z,100045.95
2017-11-28T23:30:27.253Z,100048.31
2017-11-28T23:32:55.618Z,100045.78
2017-11-28T23:35:23.942Z,100041.56
2017-11-28T23:37:52.265Z,100051.18
2017-11-28T23:40:20.716Z,100046.16
2017-11-28T23:42:49.033Z,100044.91
2017-11-28T23:45:17.372Z,100040.59
2017-11-28T23:47:45.734Z,100046.48
2017-11-28T23:50:14.125Z,100050.84
2017-11-28T23:52:42.442Z,100046.05
2017-11-28T23:55:10.823Z,100044.28
2017-11-28T23:57:39.140Z,100052.05
